Time;durP1;ratioP1;P1;durP2;ratioP2;P2;SDS_P1;SDS_P2;PMS_P1;PMS_P2;Temp;Humidity;BMP_temperature;BMP_pressure;BME280_temperature;BME280_humidity;BME280_pressure;Samples;Min_cycle;Max_cycle;Signal;HPM_P1;HPM_P2
2021/01/26 04:15:35;;;;;;;2.45;1.77;;;-8.00;99.90;;;;;;4953791;28;20059;-69
2021/01/26 04:18:01;;;;;;;2.05;1.67;;;-8.00;99.90;;;;;;4954511;29;20399;-69
2021/01/26 04:20:35;;;;;;;2.80;1.90;;;-8.00;99.90;;;;;;4954461;29;20067;-69
2021/01/26 04:23:01;;;;;;;2.13;1.85;;;-8.00;99.90;;;;;;4954346;29;20027;-69
2021/01/26 04:25:38;;;;;;;2.75;1.80;;;-8.00;99.90;;;;;;4954319;28;20032;-69
2021/01/26 04:28:07;;;;;;;3.65;1.92;;;-7.90;99.90;;;;;;4954221;29;20023;-69
2021/01/26 04:30:33;;;;;;;3.65;1.92;;;-7.80;99.90;;;;;;4954150;29;20035;-71
2021/01/26 04:33:07;;;;;;;1.77;1.67;;;-7.70;99.90;;;;;;4954282;29;20665;-71
2021/01/26 04:35:33;;;;;;;2.08;1.70;;;-7.70;99.90;;;;;;4954202;28;20023;-71
2021/01/26 04:37:59;;;;;;;2.05;1.85;;;-7.70;99.80;;;;;;4952982;29;20564;-71
2021/01/26 04:40:26;;;;;;;1.98;1.75;;;-7.70;99.20;;;;;;4953835;29;20031;-71
2021/01/26 04:43:22;;;;;;;2.58;1.58;;;-7.70;97.50;;;;;;4954366;29;20031;-71
2021/01/26 04:45:59;;;;;;;1.98;1.70;;;-7.80;95.40;;;;;;4954023;28;20030;-71
2021/01/26 04:48:44;;;;;;;1.70;1.50;;;-7.90;93.60;;;;;;4953838;29;20031;-71
2021/01/26 04:51:47;;;;;;;3.13;1.80;;;-8.00;93.40;;;;;;4953769;29;20036;-71
2021/01/26 04:54:16;;;;;;;2.20;2.00;;;-8.10;92.50;;;;;;4923494;28;20046;-70
2021/01/26 04:57:00;;;;;;;3.10;2.10;;;-8.10;93.10;;;;;;4954046;29;20031;-69
2021/01/26 04:59:45;;;;;;;3.42;2.20;;;-8.20;92.60;;;;;;4953673;28;20023;-69
2021/01/26 05:02:39;;;;;;;5.63;2.03;;;-8.30;91.90;;;;;;4953702;29;20031;-69
2021/01/26 05:05:09;;;;;;;3.75;2.47;;;-8.40;92.20;;;;;;4927389;28;20027;-69
2021/01/26 05:07:52;;;;;;;4.72;2.28;;;-8.40;92.10;;;;;;4953898;29;20090;-69
2021/01/26 05:10:46;;;;;;;2.10;1.75;;;-8.40;92.20;;;;;;4953564;28;20399;-70
2021/01/26 05:13:18;;;;;;;2.72;1.77;;;-8.40;91.80;;;;;;4948124;28;20058;-70
2021/01/26 05:15:49;;;;;;;2.72;1.77;;;-8.40;90.90;;;;;;4953539;29;20130;-70
2021/01/26 05:18:24;;;;;;;2.47;1.80;;;-8.50;90.80;;;;;;4953781;29;20711;-70
2021/01/26 05:21:00;;;;;;;2.55;1.80;;;-8.60;90.70;;;;;;4953951;29;20087;-70
2021/01/26 05:23:33;;;;;;;4.38;2.08;;;-8.60;90.60;;;;;;4953602;29;20055;-70
2021/01/26 05:25:58;;;;;;;2.85;1.83;;;-8.70;90.60;;;;;;4953752;29;20027;-70
2021/01/26 05:28:24;;;;;;;2.22;2.00;;;-8.80;90.60;;;;;;4952291;29;20023;-70
2021/01/26 05:30:56;;;;;;;1.90;1.52;;;-8.80;90.70;;;;;;4953622;29;20031;-72
2021/01/26 05:33:22;;;;;;;2.65;1.73;;;-8.80;91.20;;;;;;4953942;29;20391;-75
2021/01/26 05:35:54;;;;;;;2.00;1.80;;;-8.90;91.80;;;;;;4953921;29;20110;-74
2021/01/26 05:38:22;;;;;;;1.48;1.38;;;-8.90;92.40;;;;;;4953834;29;20046;-73
2021/01/26 05:40:54;;;;;;;2.00;1.80;;;-8.80;99.10;;;;;;4952230;29;20023;-71
2021/01/26 05:43:23;;;;;;;3.83;2.03;;;-8.10;99.90;;;;;;4953415;29;20055;-71
2021/01/26 05:45:54;;;;;;;2.38;1.73;;;-7.80;99.90;;;;;;4953423;29;20261;-72
2021/01/26 05:48:22;;;;;;;2.35;1.95;;;-8.00;99.90;;;;;;4953185;29;20074;-71
2021/01/26 05:50:50;;;;;;;6.45;3.03;;;-8.20;99.30;;;;;;4953524;29;20077;-72
2021/01/26 05:53:20;;;;;;;4.07;2.50;;;-8.40;96.30;;;;;;4953203;28;20019;-76
2021/01/26 05:55:58;;;;;;;;;;;-8.50;94.90;;;;;;4953239;28;20053;-75
2021/01/26 05:58:30;;;;;;;2.85;1.92;;;-8.60;91.70;;;;;;4951942;29;19910;-75
2021/01/26 06:01:00;;;;;;;2.88;1.95;;;-8.70;93.20;;;;;;4957261;29;20027;-76
2021/01/26 06:03:26;;;;;;;2.25;1.95;;;-8.70;94.10;;;;;;4956224;29;20539;-75
2021/01/26 06:06:13;;;;;;;2.45;1.95;;;-8.70;93.90;;;;;;4956579;28;20035;-72
2021/01/26 06:08:53;;;;;;;2.40;2.00;;;-8.70;93.00;;;;;;4956242;28;20051;-74
2021/01/26 06:11:29;;;;;;;3.38;2.03;;;-8.80;92.20;;;;;;4956226;28;20067;-74
2021/01/26 06:14:11;;;;;;;2.03;1.80;;;-8.90;92.40;;;;;;4956071;29;20023;-74
2021/01/26 06:16:37;;;;;;;2.00;1.80;;;-8.90;91.80;;;;;;4956476;29;20043;-74
2021/01/26 06:19:05;;;;;;;2.33;2.10;;;-9.00;91.60;;;;;;4956526;29;20490;-72
2021/01/26 06:21:44;;;;;;;4.03;2.50;;;-9.00;91.80;;;;;;4955073;29;20535;-73
2021/01/26 06:24:22;;;;;;;4.30;2.40;;;-9.00;91.90;;;;;;4956419;28;20058;-72
2021/01/26 06:27:25;;;;;;;2.40;2.03;;;-8.80;99.90;;;;;;4956566;29;20262;-72
2021/01/26 06:30:08;;;;;;;3.03;2.15;;;-8.60;99.90;;;;;;4956548;28;20028;-72
2021/01/26 06:32:52;;;;;;;2.83;1.92;;;-8.70;97.20;;;;;;4956615;29;20027;-72
2021/01/26 06:35:38;;;;;;;2.58;2.13;;;-8.80;96.40;;;;;;4956091;29;20024;-72
2021/01/26 06:38:26;;;;;;;4.35;2.47;;;-8.90;95.60;;;;;;4955666;29;20086;-72
2021/01/26 06:41:36;;;;;;;4.43;2.65;;;-9.00;95.60;;;;;;4954886;29;20031;-72
2021/01/26 06:44:17;;;;;;;;;;;-9.00;97.30;;;;;;4956465;28;20075;-72
2021/01/26 06:46:51;;;;;;;3.30;2.20;;;-9.00;97.10;;;;;;4956097;29;19906;-72
2021/01/26 06:49:41;;;;;;;17.50;6.78;;;-9.00;98.60;;;;;;4954656;29;20134;-72
2021/01/26 06:52:12;;;;;;;32.20;12.23;;;-9.00;99.90;;;;;;4956025;29;20039;-74
2021/01/26 06:54:41;;;;;;;45.63;14.43;;;-9.00;99.90;;;;;;4955431;29;20054;-74
2021/01/26 06:57:31;;;;;;;16.52;5.05;;;-9.00;99.90;;;;;;4955730;29;20027;-74
2021/01/26 07:00:23;;;;;;;3.13;2.33;;;-8.50;99.90;;;;;;4955894;28;20653;-76
2021/01/26 07:02:53;;;;;;;2.17;1.70;;;-7.00;99.90;;;;;;4955889;29;20038;-75
2021/01/26 07:05:38;;;;;;;2.85;2.30;;;-6.60;99.90;;;;;;4955468;28;20031;-75
2021/01/26 07:08:13;;;;;;;2.58;2.13;;;-6.90;99.90;;;;;;4954966;28;20027;-71
2021/01/26 07:11:09;;;;;;;3.25;2.00;;;-7.20;99.90;;;;;;4955530;29;20043;-71
2021/01/26 07:13:57;;;;;;;3.38;1.92;;;-7.50;99.90;;;;;;4954299;28;20110;-72
2021/01/26 07:16:47;;;;;;;2.20;1.88;;;-7.00;99.90;;;;;;4952488;28;20126;-70
2021/01/26 07:19:16;;;;;;;5.47;2.22;;;-7.40;99.90;;;;;;4954159;29;20077;-71
2021/01/26 07:21:56;;;;;;;3.15;2.30;;;-7.80;99.90;;;;;;4954971;29;20037;-74
2021/01/26 07:24:26;;;;;;;2.70;1.80;;;-8.10;99.90;;;;;;4953648;28;20023;-73
2021/01/26 07:27:29;;;;;;;2.17;1.88;;;-8.20;98.10;;;;;;4955209;29;20015;-73
2021/01/26 07:30:04;;;;;;;2.25;2.03;;;-8.30;96.60;;;;;;4953888;29;20036;-73
2021/01/26 07:32:43;;;;;;;3.08;1.80;;;-8.40;95.90;;;;;;4967645;28;20031;-74
2021/01/26 07:35:15;;;;;;;3.15;1.80;;;-8.50;95.80;;;;;;4948690;29;20027;-73
2021/01/26 07:37:53;;;;;;;2.58;2.00;;;-8.50;95.40;;;;;;4949879;29;20109;-73
2021/01/26 07:40:47;;;;;;;3.05;1.95;;;-8.60;95.30;;;;;;4954330;29;20454;-73
2021/01/26 07:43:17;;;;;;;2.30;1.92;;;-8.60;94.60;;;;;;4954169;29;20028;-74
2021/01/26 07:46:04;;;;;;;2.72;1.88;;;-8.60;94.20;;;;;;4954362;28;20022;-73
2021/01/26 07:48:44;;;;;;;1.58;1.48;;;-8.60;93.10;;;;;;4954287;28;20106;-71
2021/01/26 07:51:26;;;;;;;3.40;1.70;;;-8.60;99.90;;;;;;4953890;29;20043;-70
2021/01/26 07:54:20;;;;;;;5.22;1.80;;;-6.60;99.90;;;;;;4953654;29;20368;-70
2021/01/26 07:56:45;;;;;;;3.63;2.25;;;-4.50;99.90;;;;;;4953326;29;20386;-70
2021/01/26 07:59:22;;;;;;;8.20;3.03;;;-3.40;99.90;;;;;;4954202;28;20023;-70
2021/01/26 08:01:54;;;;;;;3.50;2.08;;;-2.80;99.90;;;;;;4954042;29;20031;-70
2021/01/26 08:04:20;;;;;;;4.15;2.13;;;-2.50;99.90;;;;;;4954416;29;20039;-69
2021/01/26 08:06:53;;;;;;;4.55;2.40;;;-2.20;99.90;;;;;;4954424;29;20032;-70
2021/01/26 08:09:48;;;;;;;3.97;2.33;;;-1.90;99.90;;;;;;4952989;29;20359;-70
2021/01/26 08:12:16;;;;;;;3.97;1.77;;;-1.70;99.90;;;;;;4954339;28;20427;-71
2021/01/26 08:14:47;;;;;;;2.47;1.70;;;-1.70;99.90;;;;;;4953831;28;20059;-76
2021/01/26 08:17:14;;;;;;;;;;;-2.60;99.90;;;;;;4954623;29;20062;-76
2021/01/26 08:19:50;;;;;;;2.00;1.50;;;-2.90;99.90;;;;;;4954333;28;19950;-74
2021/01/26 08:22:34;;;;;;;2.85;1.50;;;-2.60;99.90;;;;;;4953680;29;20454;-74
2021/01/26 08:25:05;;;;;;;1.75;1.52;;;-3.20;99.90;;;;;;4954053;29;20055;-74
2021/01/26 08:27:39;;;;;;;1.80;1.40;;;-4.20;99.90;;;;;;4954185;29;20035;-74
2021/01/26 08:30:07;;;;;;;2.22;1.63;;;-5.00;99.90;;;;;;4954165;29;20207;-74
2021/01/26 08:32:33;;;;;;;1.90;1.70;;;-5.60;99.90;;;;;;4953972;29;20102;-74
2021/01/26 08:35:01;;;;;;;3.38;1.60;;;-6.00;99.90;;;;;;4954156;29;20107;-75
2021/01/26 08:37:42;;;;;;;3.83;1.85;;;-6.30;99.90;;;;;;4953772;29;20038;-74
2021/01/26 08:40:17;;;;;;;2.25;1.75;;;-6.50;99.90;;;;;;4952882;29;20042;-74
2021/01/26 08:42:43;;;;;;;2.90;2.33;;;-6.60;99.90;;;;;;4954113;29;20023;-74
2021/01/26 08:45:25;;;;;;;3.13;2.45;;;-6.70;99.90;;;;;;4954084;29;20174;-74
2021/01/26 08:48:03;;;;;;;5.18;3.15;;;-6.70;99.90;;;;;;4954043;29;20020;-74
2021/01/26 08:50:31;;;;;;;4.68;2.63;;;-6.80;99.90;;;;;;4953392;29;20472;-74
2021/01/26 08:53:19;;;;;;;3.63;2.40;;;-6.90;99.90;;;;;;4968723;28;20101;-73
2021/01/26 08:55:54;;;;;;;4.00;2.28;;;-6.80;99.90;;;;;;4954017;28;20110;-74
2021/01/26 08:58:49;;;;;;;4.07;2.55;;;-6.80;99.90;;;;;;4953833;29;20116;-73
2021/01/26 09:01:23;;;;;;;4.25;2.70;;;-6.70;99.90;;;;;;4954081;28;20031;-74
2021/01/26 09:04:12;;;;;;;3.10;1.60;;;-6.60;99.90;;;;;;4954095;28;20038;-73
2021/01/26 09:06:42;;;;;;;3.78;1.92;;;-6.10;99.90;;;;;;4910998;29;20372;-73
2021/01/26 09:09:30;;;;;;;3.75;2.35;;;-4.70;99.90;;;;;;4933486;29;20124;-74
2021/01/26 09:11:59;;;;;;;4.43;2.55;;;-4.80;99.90;;;;;;4935022;29;20035;-74
2021/01/26 09:14:37;;;;;;;2.80;2.40;;;-5.10;99.90;;;;;;4952354;29;20517;-73
2021/01/26 09:17:07;;;;;;;2.95;2.47;;;-5.30;99.90;;;;;;4953136;29;20035;-73
2021/01/26 09:19:46;;;;;;;4.68;2.78;;;-5.50;99.90;;;;;;4953396;29;20031;-73
2021/01/26 09:22:17;;;;;;;3.53;2.47;;;-5.60;99.90;;;;;;4953796;29;20498;-74
2021/01/26 09:24:43;;;;;;;2.60;2.00;;;-5.10;99.90;;;;;;4954301;29;20094;-75
2021/01/26 09:27:17;;;;;;;4.20;2.13;;;-5.00;99.90;;;;;;4953458;29;20027;-75
2021/01/26 09:29:43;;;;;;;4.53;2.50;;;-5.10;99.90;;;;;;4953609;28;20020;-75
2021/01/26 09:32:09;;;;;;;4.78;2.00;;;-5.20;99.90;;;;;;4955226;28;20023;-79
2021/01/26 09:34:35;;;;;;;5.18;2.30;;;-5.30;99.90;;;;;;4957285;28;20031;-78
2021/01/26 09:37:13;;;;;;;2.83;2.25;;;-5.30;99.90;;;;;;4957008;29;20024;-78
2021/01/26 09:39:39;;;;;;;3.28;2.08;;;-5.40;99.90;;;;;;4956822;29;20019;-78
2021/01/26 09:42:21;;;;;;;3.88;2.17;;;-5.40;99.90;;;;;;4956992;29;20031;-77
2021/01/26 09:45:01;;;;;;;2.95;2.40;;;-5.40;99.90;;;;;;4957406;29;20023;-78
2021/01/26 09:47:28;;;;;;;2.25;1.90;;;-5.50;99.90;;;;;;4957163;29;20023;-76
2021/01/26 09:50:12;;;;;;;3.50;2.38;;;-5.50;99.90;;;;;;4956125;29;20043;-76
2021/01/26 09:52:39;;;;;;;4.13;2.17;;;-5.60;99.90;;;;;;4956195;29;20035;-77
2021/01/26 09:55:15;;;;;;;3.25;2.17;;;-5.70;99.90;;;;;;4956541;29;20019;-76
2021/01/26 09:57:42;;;;;;;3.65;2.15;;;-5.70;99.90;;;;;;4956096;28;20027;-75
2021/01/26 10:00:14;;;;;;;5.05;2.70;;;-5.70;99.90;;;;;;4956152;29;20132;-75
2021/01/26 10:02:42;;;;;;;3.88;2.42;;;-5.10;99.90;;;;;;4959118;28;20031;-76
2021/01/26 10:05:11;;;;;;;3.50;2.28;;;-5.10;99.90;;;;;;4956826;28;20023;-76
2021/01/26 10:07:37;;;;;;;3.42;2.17;;;-5.30;99.90;;;;;;4956643;28;20055;-76
2021/01/26 10:10:29;;;;;;;3.65;2.40;;;-5.50;99.90;;;;;;4956660;28;20035;-76
2021/01/26 10:12:55;;;;;;;3.05;2.15;;;-5.70;99.90;;;;;;4954602;28;20035;-76
2021/01/26 10:15:24;;;;;;;2.67;2.00;;;-5.80;99.90;;;;;;4956287;28;20073;-76
2021/01/26 10:18:02;;;;;;;2.53;1.90;;;-5.90;99.90;;;;;;4955725;28;20066;-76
2021/01/26 10:20:35;;;;;;;2.25;1.77;;;-5.50;99.90;;;;;;4956077;28;20384;-75
2021/01/26 10:23:07;;;;;;;2.38;1.88;;;-4.30;99.90;;;;;;4956009;29;20046;-74
2021/01/26 10:25:33;;;;;;;2.70;1.80;;;-4.30;99.90;;;;;;4956041;29;20035;-79
2021/01/26 10:28:14;;;;;;;4.50;2.22;;;-3.80;99.90;;;;;;4956474;29;20066;-77
2021/01/26 10:30:46;;;;;;;3.33;2.20;;;-3.80;99.90;;;;;;4963690;29;20098;-77
2021/01/26 10:33:49;;;;;;;3.15;1.92;;;-4.00;99.90;;;;;;4962660;29;20420;-77
2021/01/26 10:36:32;;;;;;;3.10;1.80;;;-4.30;99.90;;;;;;4956124;28;20030;-77
2021/01/26 10:39:01;;;;;;;3.50;2.28;;;-4.70;99.90;;;;;;4956472;29;20031;-77
2021/01/26 10:41:33;;;;;;;4.20;2.00;;;-4.80;99.90;;;;;;4955945;29;20518;-77
2021/01/26 10:44:08;;;;;;;4.72;2.17;;;-4.90;99.90;;;;;;4955878;28;20029;-77
2021/01/26 10:46:45;;;;;;;2.97;1.95;;;-5.00;99.90;;;;;;4955787;29;20115;-75
2021/01/26 10:49:37;;;;;;;2.03;1.83;;;-5.00;99.90;;;;;;4955930;29;20031;-77
2021/01/26 10:52:06;;;;;;;2.25;1.90;;;-5.00;99.90;;;;;;4955573;28;20043;-76
2021/01/26 10:54:32;;;;;;;3.03;2.00;;;-5.00;99.90;;;;;;4956043;28;20034;-77
2021/01/26 10:56:58;;;;;;;2.60;2.00;;;-5.00;99.90;;;;;;4954476;29;20526;-77
2021/01/26 10:59:24;;;;;;;3.70;1.95;;;-5.00;99.90;;;;;;4955554;29;20074;-76
2021/01/26 11:01:50;;;;;;;11.80;4.55;;;-5.00;99.90;;;;;;4955753;29;20038;-75
2021/01/26 11:04:19;;;;;;;40.72;16.13;;;-5.00;99.90;;;;;;4955597;29;20027;-75
2021/01/26 11:06:45;;;;;;;28.85;14.32;;;-5.00;99.90;;;;;;4955599;28;20074;-74
2021/01/26 11:09:14;;;;;;;19.10;8.73;;;-4.90;99.90;;;;;;4955549;28;20514;-74
2021/01/26 11:11:42;;;;;;;6.25;3.85;;;-4.90;99.90;;;;;;4955411;29;20590;-75
2021/01/26 11:14:08;;;;;;;4.03;2.63;;;-4.90;99.90;;;;;;4955533;29;20034;-75
2021/01/26 11:16:35;;;;;;;3.78;2.50;;;-4.90;99.90;;;;;;4953958;29;20078;-75
2021/01/26 11:19:04;;;;;;;3.55;2.50;;;-4.90;99.90;;;;;;4955432;29;20024;-75
2021/01/26 11:21:31;;;;;;;5.32;2.42;;;-4.90;99.90;;;;;;4955240;28;20395;-75
2021/01/26 11:23:57;;;;;;;5.03;2.30;;;-4.90;99.90;;;;;;4954200;29;20480;-75
2021/01/26 11:26:23;;;;;;;3.38;2.25;;;-4.90;99.90;;;;;;4955375;29;20031;-75
2021/01/26 11:28:49;;;;;;;2.63;2.10;;;-4.90;99.90;;;;;;4954076;29;20023;-74
2021/01/26 11:31:17;;;;;;;2.00;1.70;;;-4.90;99.90;;;;;;4955340;29;20098;-75
2021/01/26 11:33:43;;;;;;;2.90;2.10;;;-4.90;99.90;;;;;;4955209;28;20023;-75
2021/01/26 11:36:09;;;;;;;3.85;2.25;;;-5.00;99.90;;;;;;4954816;28;20042;-74
2021/01/26 11:38:35;;;;;;;7.03;3.72;;;-5.00;99.90;;;;;;4955188;29;20024;-74
2021/01/26 11:41:05;;;;;;;6.97;4.63;;;-5.10;99.90;;;;;;4955040;29;20443;-75
2021/01/26 11:43:32;;;;;;;5.15;4.53;;;-5.10;99.90;;;;;;4955051;29;20027;-74
2021/01/26 11:45:57;;;;;;;6.28;5.65;;;-5.00;99.90;;;;;;4955026;29;20460;-75
2021/01/26 11:48:25;;;;;;;7.10;5.18;;;-4.90;99.90;;;;;;4955068;29;20054;-75
2021/01/26 11:50:51;;;;;;;5.43;4.00;;;-4.90;99.90;;;;;;4955002;29;20039;-75
2021/01/26 11:53:19;;;;;;;3.60;2.75;;;-4.80;99.90;;;;;;4954788;29;20019;-75
2021/01/26 11:55:45;;;;;;;3.60;2.30;;;-4.80;99.90;;;;;;4954160;28;20059;-77
2021/01/26 11:58:11;;;;;;;2.28;1.85;;;-4.80;99.90;;;;;;4954730;29;20470;-75
2021/01/26 12:00:38;;;;;;;3.45;2.22;;;-4.80;99.90;;;;;;4954309;29;20522;-75
2021/01/26 12:03:05;;;;;;;2.13;1.90;;;-4.70;99.90;;;;;;4954340;28;20110;-75
2021/01/26 12:05:33;;;;;;;3.05;1.80;;;-4.70;99.90;;;;;;4954093;29;20110;-74
2021/01/26 12:07:59;;;;;;;3.50;2.20;;;-4.70;99.90;;;;;;4954427;28;20031;-74
2021/01/26 12:10:25;;;;;;;3.83;2.20;;;-4.70;99.90;;;;;;4954362;29;20374;-73
2021/01/26 12:12:51;;;;;;;3.10;2.05;;;-4.70;99.90;;;;;;4954372;29;20030;-73
2021/01/26 12:15:23;;;;;;;3.03;1.90;;;-4.70;99.90;;;;;;4954340;29;20048;-73
2021/01/26 12:17:49;;;;;;;3.25;1.92;;;-4.70;99.90;;;;;;4954110;29;20039;-75
2021/01/26 12:20:16;;;;;;;2.70;1.90;;;-4.70;99.90;;;;;;4954376;29;20038;-74
2021/01/26 12:22:42;;;;;;;3.17;2.00;;;-4.70;99.90;;;;;;4954397;28;20030;-74
2021/01/26 12:25:09;;;;;;;2.75;2.22;;;-4.70;99.90;;;;;;4954687;28;20468;-74
2021/01/26 12:27:35;;;;;;;2.80;2.15;;;-4.80;99.90;;;;;;4954213;28;20114;-75
2021/01/26 12:30:01;;;;;;;3.70;2.30;;;-4.80;99.90;;;;;;4954281;29;20703;-74
2021/01/26 12:32:26;;;;;;;3.63;2.67;;;-4.90;99.90;;;;;;4954261;29;20035;-74
2021/01/26 12:34:52;;;;;;;4.75;2.72;;;-4.90;99.90;;;;;;4954381;28;20030;-75
2021/01/26 12:37:19;;;;;;;4.75;2.72;;;-4.90;99.90;;;;;;4954324;28;20495;-73
2021/01/26 12:39:45;;;;;;;4.20;2.97;;;-4.80;99.90;;;;;;4954040;28;20027;-75
2021/01/26 12:42:12;;;;;;;3.72;2.90;;;-4.80;99.90;;;;;;4954180;29;20520;-76
2021/01/26 12:44:37;;;;;;;4.40;3.03;;;-4.80;99.90;;;;;;4954043;29;20054;-75
2021/01/26 12:47:03;;;;;;;3.33;2.95;;;-4.70;99.90;;;;;;4953925;29;20813;-75
2021/01/26 12:49:29;;;;;;;5.28;2.90;;;-4.70;99.90;;;;;;4953927;28;20042;-75
2021/01/26 12:51:55;;;;;;;4.53;2.92;;;-4.70;99.90;;;;;;4953902;29;20031;-76
2021/01/26 12:54:21;;;;;;;5.32;3.08;;;-4.70;99.90;;;;;;4953992;29;20394;-76
2021/01/26 12:56:47;;;;;;;3.78;2.95;;;-4.70;99.90;;;;;;4954049;29;20060;-75
2021/01/26 12:59:14;;;;;;;4.47;2.67;;;-4.70;99.90;;;;;;4953924;28;20052;-74
2021/01/26 13:01:40;;;;;;;3.40;2.40;;;-4.70;99.90;;;;;;4953376;29;20082;-74
2021/01/26 13:04:06;;;;;;;3.65;2.60;;;-4.70;99.90;;;;;;4953518;29;20039;-74
2021/01/26 13:06:31;;;;;;;2.95;1.90;;;-4.70;99.90;;;;;;4954364;28;20077;-69
2021/01/26 13:08:57;;;;;;;3.55;2.67;;;-4.50;99.90;;;;;;4957784;29;20023;-75
2021/01/26 13:11:24;;;;;;;3.90;2.60;;;-2.60;99.90;;;;;;4957599;29;20114;-75
2021/01/26 13:13:50;;;;;;;7.15;2.67;;;-2.60;99.90;;;;;;4957507;29;20034;-74
2021/01/26 13:16:16;;;;;;;3.88;2.40;;;-2.90;99.90;;;;;;4957409;29;20051;-74
2021/01/26 13:18:43;;;;;;;3.50;2.42;;;-3.40;99.90;;;;;;4957185;29;20151;-74
2021/01/26 13:21:09;;;;;;;4.07;2.50;;;-3.60;99.90;;;;;;4957647;28;20034;-74
2021/01/26 13:23:35;;;;;;;3.72;2.50;;;-3.80;99.90;;;;;;4957627;28;20027;-74
2021/01/26 13:26:00;;;;;;;6.22;2.75;;;-3.90;99.90;;;;;;4957526;28;20027;-75
2021/01/26 13:28:26;;;;;;;5.53;3.15;;;-4.00;99.90;;;;;;4957444;29;20035;-74
2021/01/26 13:30:53;;;;;;;5.53;3.70;;;-4.00;99.90;;;;;;4957440;28;20039;-74
2021/01/26 13:33:18;;;;;;;5.30;2.78;;;-4.10;99.90;;;;;;4957228;28;20063;-75
2021/01/26 13:35:44;;;;;;;6.50;3.65;;;-4.10;99.90;;;;;;4956911;29;20105;-74
2021/01/26 13:38:11;;;;;;;5.70;3.38;;;-4.10;99.90;;;;;;4957035;29;20075;-75
2021/01/26 13:40:37;;;;;;;3.80;2.45;;;-4.10;99.90;;;;;;4957069;29;20391;-74
2021/01/26 13:43:03;;;;;;;4.70;2.92;;;-1.80;99.90;;;;;;4957100;29;20034;-72
2021/01/26 13:45:31;;;;;;;5.10;2.50;;;-0.70;99.90;;;;;;4957194;28;20027;-74
2021/01/26 13:47:57;;;;;;;4.15;2.63;;;-0.70;99.90;;;;;;4957347;28;20030;-75
2021/01/26 13:50:27;;;;;;;2.92;2.22;;;-1.30;99.90;;;;;;4957417;29;20498;-75
2021/01/26 13:52:53;;;;;;;2.30;1.90;;;-1.90;99.90;;;;;;4956970;29;20118;-75
2021/01/26 13:55:19;;;;;;;4.38;2.55;;;-2.40;99.90;;;;;;4957320;29;20059;-74
2021/01/26 13:57:48;;;;;;;2.85;1.98;;;-2.70;99.90;;;;;;4955591;29;20035;-74
2021/01/26 14:00:15;;;;;;;3.45;2.28;;;-2.90;99.90;;;;;;4957079;29;20035;-69
2021/01/26 14:02:40;;;;;;;3.15;1.90;;;-3.10;99.90;;;;;;4956594;29;20387;-74
2021/01/26 14:05:07;;;;;;;2.88;1.90;;;-2.80;99.90;;;;;;4956669;28;20031;-73
2021/01/26 14:07:32;;;;;;;2.83;2.08;;;-2.60;99.90;;;;;;4957053;28;20031;-73
2021/01/26 14:09:58;;;;;;;5.55;2.17;;;-2.70;99.90;;;;;;4957027;29;20042;-73
2021/01/26 14:12:24;;;;;;;2.97;1.98;;;-3.00;99.90;;;;;;4956687;29;20027;-73
2021/01/26 14:14:49;;;;;;;4.13;2.30;;;-3.10;99.90;;;;;;4956416;29;20043;-74
2021/01/26 14:17:15;;;;;;;3.55;2.20;;;-3.20;99.90;;;;;;4956285;28;20102;-73
2021/01/26 14:19:41;;;;;;;3.95;2.22;;;-3.30;99.90;;;;;;4956394;29;20391;-74
2021/01/26 14:22:07;;;;;;;3.58;2.50;;;-3.40;99.90;;;;;;4956526;29;20110;-76
2021/01/26 14:24:33;;;;;;;2.55;2.25;;;-3.40;99.90;;;;;;4956347;29;20251;-74
2021/01/26 14:26:59;;;;;;;4.57;2.50;;;-3.50;99.90;;;;;;4956075;29;20507;-74
2021/01/26 14:29:25;;;;;;;2.80;1.98;;;-3.50;99.90;;;;;;4956205;29;20034;-73
2021/01/26 14:31:50;;;;;;;2.35;1.92;;;-3.50;99.90;;;;;;4955824;29;20487;-73
2021/01/26 14:34:16;;;;;;;3.30;2.13;;;-3.60;99.90;;;;;;4956011;29;20074;-73
2021/01/26 14:36:42;;;;;;;5.43;2.30;;;-3.60;99.90;;;;;;4955625;29;20074;-74
2021/01/26 14:39:07;;;;;;;4.40;2.20;;;-3.60;99.90;;;;;;4955781;29;20487;-73
2021/01/26 14:41:33;;;;;;;4.13;2.25;;;-3.60;99.90;;;;;;4955841;29;20028;-73
2021/01/26 14:43:59;;;;;;;2.35;1.60;;;-3.60;99.90;;;;;;4955560;29;20031;-73
2021/01/26 14:46:29;;;;;;;2.63;2.10;;;-3.70;99.90;;;;;;4955667;28;20020;-73
2021/01/26 14:48:55;;;;;;;3.10;2.15;;;-3.70;99.90;;;;;;4955422;29;20027;-73
2021/01/26 14:51:21;;;;;;;4.57;2.05;;;-3.70;99.90;;;;;;4955653;28;20075;-73
2021/01/26 14:53:50;;;;;;;2.53;2.00;;;-3.80;99.90;;;;;;4955357;29;20020;-73
2021/01/26 14:56:16;;;;;;;2.45;1.88;;;-3.80;99.90;;;;;;4955700;29;20147;-73
2021/01/26 14:58:42;;;;;;;3.63;1.95;;;-3.90;99.90;;;;;;4955112;29;20547;-74
2021/01/26 15:01:07;;;;;;;2.30;2.00;;;-4.00;99.90;;;;;;4955761;29;20031;-74
2021/01/26 15:03:33;;;;;;;3.10;2.10;;;-4.00;99.90;;;;;;4956087;28;20024;-74
2021/01/26 15:05:59;;;;;;;2.50;1.80;;;-4.00;99.90;;;;;;4955759;29;20023;-74
2021/01/26 15:08:25;;;;;;;2.17;1.70;;;-4.10;99.90;;;;;;4956001;28;20444;-74
2021/01/26 15:10:51;;;;;;;2.47;2.00;;;-4.10;99.90;;;;;;4955784;28;20035;-74
2021/01/26 15:13:17;;;;;;;1.95;1.52;;;-4.20;99.90;;;;;;4955929;29;20069;-74
2021/01/26 15:15:42;;;;;;;3.13;1.73;;;-4.10;99.90;;;;;;4955385;28;20047;-74
2021/01/26 15:18:08;;;;;;;3.80;2.15;;;-4.20;99.90;;;;;;4964349;29;20027;-73
2021/01/26 15:20:34;;;;;;;2.25;1.85;;;-4.10;99.90;;;;;;4955540;28;20027;-73
2021/01/26 15:23:00;;;;;;;2.55;1.70;;;-4.10;99.90;;;;;;4960547;29;20406;-72
2021/01/26 15:25:26;;;;;;;4.13;2.10;;;-4.20;99.90;;;;;;4957324;29;20023;-74
2021/01/26 15:27:52;;;;;;;2.38;1.80;;;-4.20;99.90;;;;;;4955288;29;20600;-73
2021/01/26 15:30:21;;;;;;;3.38;2.50;;;-4.20;99.90;;;;;;4954501;28;20058;-73
2021/01/26 15:32:47;;;;;;;2.80;2.00;;;-4.20;99.90;;;;;;4955296;29;20027;-74
2021/01/26 15:35:14;;;;;;;2.65;1.70;;;-4.20;99.90;;;;;;4955048;29;20447;-70
2021/01/26 15:37:44;;;;;;;3.70;2.05;;;-3.90;99.90;;;;;;4954926;28;20027;-71
2021/01/26 15:40:10;;;;;;;3.73;1.70;;;-3.80;99.90;;;;;;4955011;28;20027;-71
2021/01/26 15:42:36;;;;;;;2.25;1.95;;;-3.80;99.90;;;;;;4955099;29;20023;-71
2021/01/26 15:45:03;;;;;;;2.45;1.77;;;-4.00;99.90;;;;;;4949763;29;20395;-72
2021/01/26 15:47:29;;;;;;;4.93;1.90;;;-4.10;99.90;;;;;;4947884;29;20530;-71
2021/01/26 15:49:55;;;;;;;2.13;1.90;;;-4.10;99.90;;;;;;4954785;29;20066;-73
2021/01/26 15:52:21;;;;;;;3.30;1.77;;;-4.20;99.80;;;;;;4954896;29;20038;-72
2021/01/26 15:54:46;;;;;;;3.47;2.20;;;-4.30;99.10;;;;;;4955060;29;20031;-72
2021/01/26 15:57:12;;;;;;;3.88;2.33;;;-4.40;98.40;;;;;;4954716;29;20033;-72
2021/01/26 15:59:38;;;;;;;2.45;2.00;;;-4.50;97.40;;;;;;4954548;29;20023;-72
2021/01/26 16:02:03;;;;;;;3.10;2.17;;;-4.60;97.00;;;;;;4954695;28;20020;-72
2021/01/26 16:04:29;;;;;;;2.67;1.90;;;-4.60;96.60;;;;;;4954674;29;20114;-72
2021/01/26 16:06:55;;;;;;;2.13;1.85;;;-4.70;95.90;;;;;;4954796;29;20082;-72
2021/01/26 16:09:21;;;;;;;3.42;2.42;;;-4.80;95.20;;;;;;4954498;29;20142;-72
2021/01/26 16:11:47;;;;;;;3.28;2.10;;;-4.80;94.90;;;;;;4954647;29;20047;-72
2021/01/26 16:14:13;;;;;;;4.05;2.35;;;-4.90;94.50;;;;;;4954517;29;20023;-72
2021/01/26 16:16:39;;;;;;;3.15;2.38;;;-4.90;94.70;;;;;;4954305;29;20062;-72
2021/01/26 16:19:05;;;;;;;4.47;2.25;;;-5.00;93.90;;;;;;4954467;28;20056;-72
2021/01/26 16:21:30;;;;;;;2.38;2.08;;;-5.10;93.60;;;;;;4954853;29;20035;-72
2021/01/26 16:23:56;;;;;;;2.42;2.03;;;-5.20;93.10;;;;;;4959479;29;20042;-72
2021/01/26 16:26:22;;;;;;;3.22;2.63;;;-5.20;93.10;;;;;;4954594;29;20097;-72
2021/01/26 16:28:47;;;;;;;3.78;2.60;;;-5.20;93.60;;;;;;4954097;29;20019;-72
2021/01/26 16:31:14;;;;;;;5.07;2.45;;;-5.30;93.30;;;;;;4954227;29;20039;-71
2021/01/26 16:33:40;;;;;;;3.88;2.25;;;-5.30;92.90;;;;;;4953644;29;20109;-70
2021/01/26 16:36:06;;;;;;;2.80;1.95;;;-5.20;99.90;;;;;;4954395;29;20110;-71
2021/01/26 16:38:32;;;;;;;4.70;2.75;;;-5.20;97.70;;;;;;4954278;28;20479;-71
2021/01/26 16:40:58;;;;;;;2.70;2.50;;;-5.60;90.50;;;;;;4954085;28;20047;-71
2021/01/26 16:43:24;;;;;;;3.53;2.58;;;-6.30;89.50;;;;;;4954105;29;20051;-71
2021/01/26 16:45:51;;;;;;;4.40;2.42;;;-6.60;91.60;;;;;;4953854;29;20066;-72
2021/01/26 16:48:17;;;;;;;2.90;2.20;;;-6.90;91.50;;;;;;4954391;29;20027;-71
2021/01/26 16:50:44;;;;;;;4.30;2.53;;;-7.10;92.00;;;;;;4953951;29;20042;-71
2021/01/26 16:53:14;;;;;;;5.55;2.67;;;-7.30;92.70;;;;;;4954248;29;20069;-71
2021/01/26 16:55:40;;;;;;;4.55;2.50;;;-7.40;92.40;;;;;;4954016;29;20067;-72
2021/01/26 16:58:06;;;;;;;3.90;2.63;;;-7.60;92.50;;;;;;4953830;29;20061;-72
2021/01/26 17:00:34;;;;;;;4.68;2.80;;;-7.10;99.90;;;;;;4955132;29;20688;-71
2021/01/26 17:03:00;;;;;;;4.95;2.95;;;-7.30;95.70;;;;;;4955881;29;20387;-70
2021/01/26 17:05:26;;;;;;;6.70;3.80;;;-7.50;93.70;;;;;;4955557;29;20499;-70
2021/01/26 17:07:53;;;;;;;5.63;3.85;;;-7.70;92.40;;;;;;4953939;29;20034;-70
2021/01/26 17:10:19;;;;;;;5.22;3.83;;;-7.90;93.10;;;;;;4953784;29;20038;-71
2021/01/26 17:12:44;;;;;;;8.02;4.18;;;-7.90;94.60;;;;;;4953647;29;20024;-70
2021/01/26 17:15:11;;;;;;;6.05;3.25;;;-7.80;95.40;;;;;;4953837;29;20440;-71
2021/01/26 17:17:37;;;;;;;7.20;3.40;;;-7.60;96.00;;;;;;4953735;29;20106;-71
2021/01/26 17:20:05;;;;;;;5.85;3.30;;;-7.60;96.60;;;;;;4953701;29;20138;-70
2021/01/26 17:22:31;;;;;;;4.80;3.40;;;-7.60;96.70;;;;;;4953556;28;20657;-70